createdAt,value
2018-06-19T00:01:28.585Z,4.40
2018-06-19T00:03:59.281Z,4.23
2018-06-19T00:06:29.945Z,4.93
2018-06-19T00:09:00.090Z,5.03
2018-06-19T00:11:30.707Z,4.57
2018-06-19T00:14:01.077Z,4.80
2018-06-19T00:16:31.656Z,4.27
2018-06-19T00:19:02.625Z,5.07
2018-06-19T00:21:39.409Z,4.40
2018-06-19T00:24:10.095Z,4.30
2018-06-19T00:26:40.196Z,4.87
2018-06-19T00:29:11.222Z,4.80
2018-06-19T00:31:41.953Z,4.70
2018-06-19T00:34:12.830Z,3.90
2018-06-19T00:36:43.458Z,4.87
2018-06-19T00:39:14.268Z,4.20
2018-06-19T00:41:45.003Z,4.23
2018-06-19T00:44:15.771Z,4.50
2018-06-19T00:46:49.711Z,4.07
2018-06-19T00:49:20.569Z,4.73
2018-06-19T00:51:51.255Z,4.30
2018-06-19T00:54:22.121Z,4.60
2018-06-19T00:56:57.253Z,3.77
2018-06-19T00:59:29.116Z,3.73
2018-06-19T01:02:01.576Z,3.63
2018-06-19T01:04:32.299Z,4.70
2018-06-19T01:07:02.981Z,4.40
2018-06-19T01:09:33.628Z,3.90
2018-06-19T01:12:05.162Z,4.87
2018-06-19T01:14:36.004Z,4.07
2018-06-19T01:17:06.629Z,4.27
2018-06-19T01:19:37.108Z,4.17
2018-06-19T01:22:07.799Z,4.27
2018-06-19T01:24:38.654Z,4.40
2018-06-19T01:27:09.601Z,4.37
2018-06-19T01:29:40.349Z,4.47
2018-06-19T01:32:11.182Z,5.57
2018-06-19T01:34:41.910Z,4.73
2018-06-19T01:37:12.546Z,4.57
2018-06-19T01:39:43.309Z,4.70
2018-06-19T01:42:14.054Z,4.93
2018-06-19T01:44:44.593Z,4.73
2018-06-19T01:47:15.276Z,4.50
2018-06-19T01:49:46.038Z,4.80
2018-06-19T01:52:16.253Z,4.83
2018-06-19T01:54:46.762Z,4.87
2018-06-19T01:57:17.221Z,4.97
2018-06-19T01:59:48.018Z,4.67
2018-06-19T02:02:18.702Z,5.20
2018-06-19T02:04:49.137Z,4.70
2018-06-19T02:07:19.862Z,5.23
2018-06-19T02:09:50.647Z,5.47
2018-06-19T02:12:21.384Z,5.47
2018-06-19T02:14:52.222Z,5.43
2018-06-19T02:17:22.952Z,5.03
2018-06-19T02:19:53.866Z,5.23
2018-06-19T02:22:24.574Z,4.90
2018-06-19T02:24:55.164Z,4.67
2018-06-19T02:27:25.889Z,4.67
2018-06-19T02:29:56.573Z,5.23
2018-06-19T02:32:27.355Z,4.93
2018-06-19T02:34:58.182Z,5.13
2018-06-19T02:37:28.717Z,5.00
2018-06-19T02:39:59.601Z,4.80
2018-06-19T02:42:30.099Z,5.30
2018-06-19T02:45:01.049Z,5.67
2018-06-19T02:47:31.807Z,4.70
2018-06-19T02:50:03.369Z,5.20
2018-06-19T02:52:34.147Z,5.93
2018-06-19T02:55:04.711Z,5.87
2018-06-19T02:57:34.826Z,5.00
2018-06-19T03:00:06.310Z,4.90
2018-06-19T03:02:37.126Z,4.87
2018-06-19T03:05:08.001Z,5.70
2018-06-19T03:07:38.758Z,7.00
2018-06-19T03:10:09.634Z,7.37
2018-06-19T03:12:39.718Z,6.53
2018-06-19T03:15:10.383Z,10.03
2018-06-19T03:17:40.948Z,15.17
2018-06-19T03:20:11.573Z,19.27
2018-06-19T03:22:42.234Z,17.63
2018-06-19T03:25:13.101Z,30.17
2018-06-19T03:27:43.913Z,50.83
2018-06-19T03:30:14.735Z,52.87
2018-06-19T03:32:45.421Z,47.47
2018-06-19T03:35:15.752Z,40.57
2018-06-19T03:37:46.586Z,35.43
2018-06-19T03:40:17.528Z,27.23
2018-06-19T03:42:48.258Z,21.97
2018-06-19T03:45:19.139Z,17.10
2018-06-19T03:47:49.565Z,14.33
2018-06-19T03:50:20.286Z,11.70
2018-06-19T03:52:50.914Z,8.17
2018-06-19T03:55:21.641Z,7.23
2018-06-19T03:57:52.293Z,6.40
2018-06-19T04:00:23.029Z,5.97
2018-06-19T04:02:53.461Z,5.40
2018-06-19T04:05:24.226Z,5.40
2018-06-19T04:07:55.075Z,5.53
2018-06-19T04:10:25.963Z,6.17
2018-06-19T04:12:56.100Z,5.10
2018-06-19T04:15:27.006Z,5.83
2018-06-19T04:17:57.645Z,5.73
2018-06-19T04:20:28.261Z,5.27
2018-06-19T04:22:58.841Z,5.60
2018-06-19T04:25:29.516Z,4.97
2018-06-19T04:28:00.198Z,5.10
2018-06-19T04:30:30.881Z,5.40
2018-06-19T04:33:01.558Z,4.60
2018-06-19T04:35:32.502Z,4.93
2018-06-19T04:38:02.733Z,5.60
2018-06-19T04:40:33.465Z,5.30
2018-06-19T04:43:04.421Z,5.97
2018-06-19T04:45:34.926Z,4.90
2018-06-19T04:48:05.809Z,4.73
2018-06-19T04:50:36.447Z,4.60
2018-06-19T04:53:07.325Z,4.50
2018-06-19T04:55:38.151Z,4.57
2018-06-19T04:58:08.885Z,4.07
2018-06-19T05:00:38.973Z,4.03
2018-06-19T05:03:09.641Z,4.17
2018-06-19T05:05:39.821Z,3.97
2018-06-19T05:08:10.573Z,3.87
2018-06-19T05:10:42.173Z,3.80
2018-06-19T05:13:12.950Z,3.57
2018-06-19T05:15:43.669Z,3.67
2018-06-19T05:18:14.722Z,3.97
2018-06-19T05:20:45.269Z,3.70
2018-06-19T05:23:16.185Z,3.53
2018-06-19T05:25:46.866Z,3.73
2018-06-19T05:28:17.517Z,3.93
2018-06-19T05:30:48.174Z,3.93
2018-06-19T05:33:18.933Z,4.60
2018-06-19T05:35:49.549Z,3.80
2018-06-19T05:38:20.335Z,3.70
2018-06-19T05:40:51.004Z,3.83
2018-06-19T05:43:22.005Z,5.10
2018-06-19T05:45:53.618Z,4.40
2018-06-19T05:48:24.309Z,4.27
2018-06-19T05:50:55.120Z,5.13
2018-06-19T05:53:25.853Z,4.70
2018-06-19T05:55:56.431Z,5.10
2018-06-19T05:58:27.138Z,4.50
2018-06-19T06:00:57.794Z,4.53
2018-06-19T06:03:28.590Z,4.30
2018-06-19T06:05:59.265Z,3.70
2018-06-19T06:08:30.147Z,4.57
2018-06-19T06:11:00.249Z,5.23
2018-06-19T06:13:30.496Z,4.77
2018-06-19T06:16:01.091Z,5.10
2018-06-19T06:18:31.961Z,3.90
2018-06-19T06:21:02.694Z,3.70
2018-06-19T06:23:33.401Z,3.53
2018-06-19T06:26:04.002Z,3.80
2018-06-19T06:28:34.878Z,3.70
2018-06-19T06:31:04.976Z,3.23
2018-06-19T06:33:36.117Z,3.00
2018-06-19T06:36:07.350Z,3.80
2018-06-19T06:38:38.070Z,2.80
2018-06-19T06:41:08.925Z,2.60
2018-06-19T06:43:39.778Z,3.10
2018-06-19T06:46:10.534Z,2.80
2018-06-19T06:48:40.864Z,2.77
2018-06-19T06:51:11.649Z,2.90
2018-06-19T06:53:42.372Z,2.83
2018-06-19T06:56:13.166Z,2.63
2018-06-19T06:58:43.957Z,2.93
2018-06-19T07:01:14.697Z,2.60
2018-06-19T07:03:45.473Z,2.40
2018-06-19T07:06:16.084Z,3.30
2018-06-19T07:08:47.119Z,2.50
2018-06-19T07:11:17.823Z,3.00
2018-06-19T07:13:48.682Z,2.33
2018-06-19T07:16:19.599Z,2.70
2018-06-19T07:18:50.203Z,2.63
2018-06-19T07:21:22.983Z,2.43
2018-06-19T07:23:56.675Z,5.07
2018-06-19T07:26:27.447Z,2.20
2018-06-19T07:28:58.134Z,2.37
2018-06-19T07:31:28.754Z,2.80
2018-06-19T07:33:59.397Z,2.30
2018-06-19T07:36:30.072Z,2.37
2018-06-19T07:39:00.981Z,2.10
2018-06-19T07:41:31.687Z,2.50
2018-06-19T07:44:02.407Z,2.20
2018-06-19T07:46:33.002Z,2.40
2018-06-19T07:49:03.878Z,2.30
2018-06-19T07:51:34.581Z,2.20
2018-06-19T07:54:05.596Z,2.60
2018-06-19T07:56:36.712Z,2.80
2018-06-19T07:59:08.770Z,2.53
2018-06-19T08:01:39.868Z,2.90
2018-06-19T08:04:11.653Z,3.17
2018-06-19T08:06:42.289Z,3.00
2018-06-19T08:09:13.225Z,2.47
2018-06-19T08:11:43.845Z,10.50
2018-06-19T08:14:14.798Z,10.77
2018-06-19T08:16:45.495Z,2.83
2018-06-19T08:19:16.485Z,2.40
2018-06-19T08:21:47.225Z,2.43
2018-06-19T08:24:18.460Z,2.57
2018-06-19T08:26:50.371Z,2.13
2018-06-19T08:29:21.506Z,3.23
2018-06-19T08:31:53.050Z,3.00
2018-06-19T08:34:24.150Z,3.27
2018-06-19T08:36:55.269Z,2.53
2018-06-19T08:39:25.887Z,2.23
2018-06-19T08:42:05.284Z,2.70
2018-06-19T08:44:37.575Z,2.40
2018-06-19T08:47:08.598Z,2.27
2018-06-19T08:49:39.046Z,2.50
2018-06-19T08:52:10.053Z,3.43
2018-06-19T08:54:41.622Z,2.70
2018-06-19T08:57:13.069Z,2.03
2018-06-19T08:59:43.421Z,4.30
2018-06-19T09:02:15.256Z,2.50
2018-06-19T09:04:46.663Z,5.33
2018-06-19T09:07:18.035Z,3.10
2018-06-19T09:09:48.642Z,2.97
2018-06-19T09:12:19.601Z,3.23
2018-06-19T09:14:50.635Z,3.63
2018-06-19T09:17:21.659Z,3.27
2018-06-19T09:19:52.879Z,3.80
2018-06-19T09:22:24.403Z,3.17
2018-06-19T09:24:56.319Z,8.23
2018-06-19T09:27:27.440Z,4.77
2018-06-19T09:29:58.399Z,6.70
2018-06-19T09:32:29.213Z,2.63
2018-06-19T09:35:00.356Z,3.53
2018-06-19T09:37:31.705Z,2.13
2018-06-19T09:40:03.009Z,2.23
2018-06-19T09:42:33.691Z,2.40
2018-06-19T09:45:04.604Z,2.20
2018-06-19T09:47:37.211Z,1.97
2018-06-19T09:50:08.161Z,2.20
2018-06-19T09:52:38.875Z,3.20
2018-06-19T09:55:10.631Z,3.60
2018-06-19T09:57:42.435Z,5.67
2018-06-19T10:00:18.729Z,2.27
2018-06-19T10:02:49.162Z,2.85
2018-06-19T10:05:20.089Z,2.20
2018-06-19T10:07:51.846Z,2.10
2018-06-19T10:10:23.030Z,2.08
2018-06-19T10:12:53.996Z,2.72
2018-06-19T10:15:24.901Z,2.12
2018-06-19T10:17:55.117Z,2.12
2018-06-19T10:20:25.613Z,2.20
2018-06-19T10:22:56.461Z,2.52
2018-06-19T10:25:27.102Z,4.10
2018-06-19T10:27:57.558Z,2.65
2018-06-19T10:30:29.207Z,1.75
2018-06-19T10:33:00.462Z,1.87
2018-06-19T10:35:31.371Z,2.67
2018-06-19T10:38:01.809Z,1.90
2018-06-19T10:40:32.184Z,3.35
2018-06-19T10:43:02.551Z,2.30
2018-06-19T10:45:32.778Z,2.58
2018-06-19T10:48:02.690Z,2.00
2018-06-19T10:50:32.590Z,1.75
2018-06-19T10:53:02.461Z,2.02
2018-06-19T10:55:33.058Z,2.00
2018-06-19T10:58:03.377Z,2.10
2018-06-19T11:00:33.815Z,2.15
2018-06-19T11:03:04.358Z,1.62
2018-06-19T11:05:35.090Z,1.90
2018-06-19T11:08:05.469Z,1.72
2018-06-19T11:10:35.991Z,2.15
2018-06-19T11:13:06.790Z,1.90
2018-06-19T11:15:37.699Z,2.62
2018-06-19T11:18:08.029Z,1.45
2018-06-19T11:20:40.134Z,1.47
2018-06-19T11:24:40.403Z,1.82
2018-06-19T11:27:11.366Z,1.90
2018-06-19T11:29:42.641Z,1.70
2018-06-19T11:32:15.242Z,1.70
2018-06-19T11:34:48.766Z,2.10
2018-06-19T11:37:19.974Z,1.70
2018-06-19T11:39:50.995Z,2.00
2018-06-19T11:42:22.443Z,1.50
2018-06-19T11:44:53.343Z,1.40
2018-06-19T11:47:24.460Z,1.72
2018-06-19T11:49:55.171Z,1.30
2018-06-19T11:52:25.941Z,1.20
2018-06-19T11:54:56.750Z,3.52
2018-06-19T11:57:27.903Z,1.90
2018-06-19T11:59:58.605Z,1.52
2018-06-19T12:02:29.454Z,1.70
2018-06-19T12:05:00.145Z,1.90
2018-06-19T12:07:45.682Z,2.55
2018-06-19T12:10:17.336Z,1.75
2018-06-19T12:12:48.541Z,1.40
2018-06-19T12:15:19.254Z,1.45
2018-06-19T12:17:50.289Z,1.75
2018-06-19T12:20:20.494Z,1.72
2018-06-19T12:22:51.394Z,1.87
2018-06-19T12:25:22.114Z,1.70
2018-06-19T12:27:53.003Z,1.70
2018-06-19T12:30:22.933Z,1.90
2018-06-19T12:32:53.387Z,1.30
2018-06-19T12:35:23.993Z,1.42
2018-06-19T12:37:54.956Z,1.40
2018-06-19T12:40:25.828Z,1.72
2018-06-19T12:42:56.690Z,1.42
2018-06-19T12:45:27.222Z,1.60
2018-06-19T12:47:58.237Z,1.20
2018-06-19T12:51:47.612Z,1.40
2018-06-19T12:54:51.862Z,1.05
2018-06-19T12:57:22.142Z,1.50
2018-06-19T12:59:52.927Z,1.30
2018-06-19T13:02:23.575Z,1.15
2018-06-19T13:05:10.332Z,1.70
2018-06-19T13:07:43.020Z,1.10
2018-06-19T13:10:14.284Z,1.20
2018-06-19T13:13:25.234Z,1.30
2018-06-19T13:15:56.326Z,2.25
2018-06-19T13:18:44.075Z,1.35
2018-06-19T13:21:14.805Z,1.77
2018-06-19T13:23:45.465Z,1.95
2018-06-19T13:26:16.150Z,1.42
2018-06-19T13:30:01.906Z,1.45
2018-06-19T13:32:33.469Z,1.00
2018-06-19T13:35:04.668Z,1.35
2018-06-19T13:37:36.258Z,1.40
2018-06-19T13:41:29.987Z,2.00
2018-06-19T13:44:17.030Z,1.57
2018-06-19T13:46:47.861Z,1.40
2018-06-19T13:49:18.989Z,1.40
2018-06-19T13:51:49.886Z,1.20
2018-06-19T13:54:20.814Z,1.10
2018-06-19T13:57:52.522Z,1.30
2018-06-19T14:00:23.371Z,1.45
2018-06-19T14:02:54.013Z,1.65
2018-06-19T14:05:25.034Z,1.60
2018-06-19T14:08:13.079Z,1.70
2018-06-19T14:11:00.206Z,1.50
2018-06-19T14:13:30.317Z,1.52
2018-06-19T14:16:01.447Z,1.57
2018-06-19T14:18:32.606Z,1.42
2018-06-19T14:21:03.390Z,1.85
2018-06-19T14:23:34.171Z,1.90
2018-06-19T14:26:04.969Z,1.50
2018-06-19T14:28:35.742Z,2.10
2018-06-19T14:31:06.573Z,1.45
2018-06-19T14:33:36.739Z,1.80
2018-06-19T14:36:07.649Z,1.50
2018-06-19T14:38:38.303Z,1.75
2018-06-19T14:41:09.083Z,1.98
2018-06-19T14:43:39.871Z,1.50
2018-06-19T14:46:10.707Z,1.50
2018-06-19T14:48:41.606Z,3.40
2018-06-19T14:51:12.592Z,2.10
2018-06-19T14:53:43.166Z,1.70
2018-06-19T14:56:14.014Z,1.70
2018-06-19T14:58:44.847Z,2.27
2018-06-19T15:01:15.635Z,2.10
2018-06-19T15:03:46.399Z,1.80
2018-06-19T15:06:17.290Z,1.50
2018-06-19T15:08:48.022Z,1.60
2018-06-19T15:11:18.851Z,1.35
2018-06-19T15:13:49.533Z,1.77
2018-06-19T15:16:21.338Z,1.55
2018-06-19T15:18:52.129Z,1.30
2018-06-19T15:21:23.042Z,1.50
2018-06-19T15:23:53.750Z,1.87
2018-06-19T15:26:24.674Z,2.37
2018-06-19T15:28:55.423Z,1.35
2018-06-19T15:31:26.149Z,2.27
2018-06-19T15:33:56.890Z,5.70
2018-06-19T15:36:27.698Z,2.33
2018-06-19T15:38:58.566Z,2.12
2018-06-19T15:41:31.021Z,2.17
2018-06-19T15:44:01.712Z,19.77
2018-06-19T15:46:32.429Z,6.12
2018-06-19T15:49:03.277Z,3.27
2018-06-19T15:51:34.290Z,2.55
2018-06-19T15:54:05.222Z,5.00
2018-06-19T15:56:35.996Z,10.75
2018-06-19T15:59:06.132Z,9.25
2018-06-19T16:01:37.199Z,31.10
2018-06-19T16:04:08.041Z,14.63
2018-06-19T16:06:39.013Z,3.72
2018-06-19T16:09:11.568Z,2.05
2018-06-19T16:11:42.390Z,2.02
2018-06-19T16:14:13.042Z,2.62
2018-06-19T16:16:44.038Z,14.45
2018-06-19T16:19:14.822Z,11.30
2018-06-19T16:21:45.601Z,24.02
2018-06-19T16:24:16.281Z,2.15
2018-06-19T16:26:47.117Z,1.85
2018-06-19T16:29:18.069Z,4.05
2018-06-19T16:31:49.689Z,2.85
2018-06-19T16:34:20.230Z,2.17
2018-06-19T16:36:51.902Z,2.40
2018-06-19T16:39:22.635Z,2.47
2018-06-19T16:41:53.319Z,2.10
2018-06-19T16:44:23.955Z,1.82
2018-06-19T16:46:54.834Z,2.25
2018-06-19T16:49:25.014Z,1.90
2018-06-19T16:51:55.866Z,2.20
2018-06-19T16:54:26.705Z,3.12
2018-06-19T16:56:57.426Z,5.60
2018-06-19T16:59:28.142Z,3.52
2018-06-19T17:01:58.810Z,4.80
2018-06-19T17:04:29.446Z,7.37
2018-06-19T17:07:00.321Z,9.07
2018-06-19T17:09:31.176Z,6.47
2018-06-19T17:12:02.221Z,12.30
2018-06-19T17:14:32.791Z,9.80
2018-06-19T17:17:03.719Z,7.40
2018-06-19T17:19:34.361Z,7.93
2018-06-19T17:22:05.198Z,5.73
2018-06-19T17:24:35.821Z,4.93
2018-06-19T17:27:06.823Z,5.90
2018-06-19T17:29:37.589Z,8.13
2018-06-19T17:32:08.586Z,4.73
2018-06-19T17:34:39.321Z,8.23
2018-06-19T17:37:09.633Z,14.40
2018-06-19T17:39:40.332Z,33.97
2018-06-19T17:42:11.202Z,14.73
2018-06-19T17:44:41.224Z,11.50
2018-06-19T17:47:12.194Z,12.23
2018-06-19T17:49:42.905Z,11.10
2018-06-19T17:52:13.879Z,6.10
2018-06-19T17:54:44.635Z,5.97
2018-06-19T17:57:15.490Z,5.80
2018-06-19T17:59:46.021Z,5.33
2018-06-19T18:02:16.862Z,5.10
2018-06-19T18:04:47.563Z,4.17
2018-06-19T18:07:18.498Z,4.17
2018-06-19T18:09:49.117Z,4.23
2018-06-19T18:12:19.917Z,3.93
2018-06-19T18:14:50.113Z,4.07
2018-06-19T18:17:20.678Z,3.00
2018-06-19T18:19:51.269Z,3.53
2018-06-19T18:22:22.107Z,3.40
2018-06-19T18:24:52.779Z,3.57
2018-06-19T18:27:23.417Z,3.67
2018-06-19T18:29:54.130Z,3.43
2018-06-19T18:32:25.118Z,3.87
2018-06-19T18:34:55.808Z,3.60
2018-06-19T18:37:26.662Z,3.90
2018-06-19T18:39:57.308Z,3.83
2018-06-19T18:42:28.294Z,3.60
2018-06-19T18:44:59.166Z,4.00
2018-06-19T18:47:30.073Z,3.13
2018-06-19T18:50:00.222Z,3.30
2018-06-19T18:52:31.981Z,3.30
2018-06-19T18:55:02.447Z,4.00
2018-06-19T18:57:32.501Z,4.20
2018-06-19T19:00:03.214Z,5.00
2018-06-19T19:02:34.411Z,3.40
2018-06-19T19:05:05.193Z,8.73
2018-06-19T19:07:35.993Z,4.50
2018-06-19T19:10:11.489Z,4.37
2018-06-19T19:12:42.485Z,3.47
2018-06-19T19:15:18.109Z,2.80
2018-06-19T19:17:54.613Z,3.47
2018-06-19T19:20:25.315Z,3.60
2018-06-19T19:22:56.083Z,3.30
2018-06-19T19:25:26.217Z,3.50
2018-06-19T19:28:01.647Z,3.47
2018-06-19T19:30:32.266Z,2.90
2018-06-19T19:33:03.245Z,3.90
2018-06-19T19:35:33.912Z,3.53
2018-06-19T19:38:09.706Z,3.90
2018-06-19T19:40:40.386Z,3.87
2018-06-19T19:43:11.734Z,3.67
2018-06-19T19:45:42.364Z,3.40
2018-06-19T19:48:17.899Z,3.73
2018-06-19T19:50:48.443Z,3.70
2018-06-19T19:53:19.294Z,3.57
2018-06-19T19:55:54.839Z,3.50
2018-06-19T19:58:30.387Z,3.60
2018-06-19T20:01:01.107Z,4.53
2018-06-19T20:03:31.733Z,5.10
2018-06-19T20:06:02.353Z,4.73
2018-06-19T20:08:33.141Z,5.33
2018-06-19T20:11:03.765Z,5.30
2018-06-19T20:13:34.514Z,5.23
2018-06-19T20:16:05.202Z,4.93
2018-06-19T20:18:35.965Z,5.30
2018-06-19T20:21:06.715Z,4.63
2018-06-19T20:23:37.500Z,4.70
2018-06-19T20:26:08.206Z,4.70
2018-06-19T20:28:39.118Z,4.63
2018-06-19T20:31:09.855Z,4.23
2018-06-19T20:33:40.666Z,5.10
2018-06-19T20:36:11.277Z,5.30
2018-06-19T20:38:42.069Z,5.10
2018-06-19T20:41:12.747Z,3.97
2018-06-19T20:43:43.691Z,4.10
2018-06-19T20:46:14.373Z,3.77
2018-06-19T20:48:45.010Z,4.53
2018-06-19T20:51:15.467Z,4.40
2018-06-19T20:53:46.727Z,4.70
2018-06-19T20:56:17.512Z,5.10
2018-06-19T20:58:48.360Z,4.87
2018-06-19T21:01:19.073Z,4.60
2018-06-19T21:03:49.977Z,5.47
2018-06-19T21:06:20.744Z,5.23
2018-06-19T21:08:51.745Z,5.30
2018-06-19T21:11:22.346Z,5.97
2018-06-19T21:13:53.333Z,5.13
2018-06-19T21:16:23.985Z,5.00
2018-06-19T21:18:54.701Z,5.30
2018-06-19T21:21:25.373Z,4.87
2018-06-19T21:23:56.094Z,4.33
2018-06-19T21:26:26.781Z,4.83
2018-06-19T21:28:57.565Z,4.87
2018-06-19T21:31:28.278Z,4.60
2018-06-19T21:33:58.651Z,4.50
2018-06-19T21:36:29.296Z,4.80
2018-06-19T21:39:00.013Z,4.50
2018-06-19T21:41:30.690Z,4.97
2018-06-19T21:44:01.519Z,4.80
2018-06-19T21:46:32.166Z,5.93
2018-06-19T21:49:02.512Z,5.33
2018-06-19T21:51:33.318Z,5.40
2018-06-19T21:54:04.289Z,5.47
2018-06-19T21:56:35.911Z,6.67
2018-06-19T21:59:06.400Z,5.93
2018-06-19T22:01:36.978Z,7.07
2018-06-19T22:04:07.226Z,6.83
2018-06-19T22:06:37.975Z,8.10
2018-06-19T22:09:09.334Z,7.73
2018-06-19T22:11:40.007Z,8.47
2018-06-19T22:14:10.679Z,7.23
2018-06-19T22:16:41.270Z,7.33
2018-06-19T22:19:12.286Z,7.40
2018-06-19T22:22:04.124Z,6.93
2018-06-19T22:24:34.694Z,7.03
2018-06-19T22:27:05.269Z,7.30
2018-06-19T22:29:36.065Z,8.43
2018-06-19T22:32:06.712Z,6.63
2018-06-19T22:34:37.401Z,7.00
2018-06-19T22:37:07.486Z,7.67
2018-06-19T22:39:38.281Z,7.43
2018-06-19T22:42:08.983Z,7.63
2018-06-19T22:44:39.597Z,7.83
2018-06-19T22:47:10.304Z,6.90
2018-06-19T22:49:41.341Z,7.67
2018-06-19T22:52:12.010Z,7.43
2018-06-19T22:54:42.416Z,7.93
2018-06-19T22:57:13.018Z,8.33
2018-06-19T22:59:44.011Z,7.93
2018-06-19T23:02:14.497Z,7.77
2018-06-19T23:04:45.331Z,6.80
2018-06-19T23:07:16.139Z,6.80
2018-06-19T23:09:47.002Z,6.80
2018-06-19T23:12:17.630Z,6.90
2018-06-19T23:14:48.366Z,7.07
2018-06-19T23:17:18.993Z,9.40
2018-06-19T23:19:49.661Z,9.37
2018-06-19T23:22:21.222Z,8.47
2018-06-19T23:24:51.581Z,8.87
2018-06-19T23:27:22.314Z,7.40
2018-06-19T23:29:53.253Z,8.67
2018-06-19T23:32:23.886Z,7.47
2018-06-19T23:34:54.734Z,6.13
2018-06-19T23:37:25.419Z,5.97
2018-06-19T23:39:56.009Z,6.70
2018-06-19T23:42:26.621Z,6.10
2018-06-19T23:44:57.623Z,5.90
2018-06-19T23:47:28.416Z,5.37
2018-06-19T23:49:59.303Z,5.33
2018-06-19T23:52:30.354Z,5.07
2018-06-19T23:55:01.420Z,5.23
2018-06-19T23:57:32.069Z,6.10
